createdAt,value
2018-03-14T00:00:56.428Z,0
2018-03-14T00:01:56.429Z,0
2018-03-14T00:02:56.431Z,0
2018-03-14T00:03:57.332Z,0
2018-03-14T00:04:57.337Z,0
2018-03-14T00:05:56.790Z,0
2018-03-14T00:06:56.524Z,0
2018-03-14T00:07:56.527Z,0
2018-03-14T00:08:56.514Z,0
2018-03-14T00:09:56.234Z,0
2018-03-14T00:10:56.876Z,0
2018-03-14T00:11:57.199Z,0
2018-03-14T00:12:57.648Z,0
2018-03-14T00:13:56.600Z,0
2018-03-14T00:14:56.630Z,0
2018-03-14T00:15:56.319Z,0
2018-03-14T00:16:56.623Z,0
2018-03-14T00:17:56.640Z,0
2018-03-14T00:18:56.636Z,0
2018-03-14T00:19:57.335Z,0
2018-03-14T00:20:56.683Z,0
2018-03-14T00:21:56.725Z,0
2018-03-14T00:22:56.710Z,0
2018-03-14T00:23:56.411Z,0
2018-03-14T00:24:56.725Z,0
2018-03-14T00:25:56.758Z,0
2018-03-14T00:26:57.048Z,0
2018-03-14T00:27:57.776Z,0
2018-03-14T00:28:56.795Z,0
2018-03-14T00:29:57.146Z,0
2018-03-14T00:30:56.818Z,0
2018-03-14T00:31:56.832Z,0
2018-03-14T00:32:56.850Z,0
2018-03-14T00:33:56.848Z,0
2018-03-14T00:34:57.192Z,0
2018-03-14T00:35:57.381Z,0
2018-03-14T00:36:56.646Z,0
2018-03-14T00:37:56.298Z,0
2018-03-14T00:38:56.903Z,0
2018-03-14T00:39:56.621Z,0
2018-03-14T00:40:56.632Z,0
2018-03-14T00:41:56.655Z,0
2018-03-14T00:42:56.960Z,0
2018-03-14T00:43:58.759Z,0
2018-03-14T00:44:56.692Z,0
2018-03-14T00:45:56.747Z,0
2018-03-14T00:46:57.310Z,0
2018-03-14T00:47:57.371Z,0
2018-03-14T00:48:57.324Z,0
2018-03-14T00:49:57.348Z,0
2018-03-14T00:50:57.702Z,0
2018-03-14T00:51:57.778Z,0
2018-03-14T00:52:57.104Z,0
2018-03-14T00:53:57.413Z,0
2018-03-14T00:54:57.406Z,0
2018-03-14T00:55:57.443Z,0
2018-03-14T00:56:57.427Z,0
2018-03-14T00:57:56.842Z,0
2018-03-14T00:58:58.174Z,0
2018-03-14T00:59:57.992Z,0
2018-03-14T01:00:57.210Z,0
2018-03-14T01:01:57.208Z,0
2018-03-14T01:02:57.232Z,0
2018-03-14T01:03:57.536Z,0
2018-03-14T01:04:57.540Z,0
2018-03-14T01:05:57.260Z,0
2018-03-14T01:06:57.533Z,0
2018-03-14T01:07:57.624Z,0
2018-03-14T01:08:57.307Z,0
2018-03-14T01:09:57.012Z,0
2018-03-14T01:10:57.354Z,0
2018-03-14T01:11:57.033Z,0
2018-03-14T01:12:57.044Z,0
2018-03-14T01:13:57.049Z,0
2018-03-14T01:14:59.556Z,0
2018-03-14T01:15:57.387Z,0
2018-03-14T01:16:57.103Z,0
2018-03-14T01:17:57.103Z,0
2018-03-14T01:18:57.420Z,0
2018-03-14T01:19:57.737Z,0
2018-03-14T01:20:57.434Z,0
2018-03-14T01:21:58.084Z,0
2018-03-14T01:22:57.167Z,0
2018-03-14T01:23:57.179Z,0
2018-03-14T01:24:57.532Z,0
2018-03-14T01:25:57.204Z,0
2018-03-14T01:26:57.217Z,0
2018-03-14T01:27:57.536Z,0
2018-03-14T01:28:56.951Z,0
2018-03-14T01:29:57.260Z,0
2018-03-14T01:30:58.660Z,0
2018-03-14T01:31:56.989Z,0
2018-03-14T01:32:57.621Z,0
2018-03-14T01:33:57.912Z,0
2018-03-14T01:34:57.909Z,0
2018-03-14T01:35:57.955Z,0
2018-03-14T01:36:57.669Z,0
2018-03-14T01:37:59.145Z,0
2018-03-14T01:38:58.785Z,0
2018-03-14T01:39:57.984Z,0
2018-03-14T01:40:57.401Z,0
2018-03-14T01:41:57.420Z,0
2018-03-14T01:42:57.429Z,0
2018-03-14T01:43:58.067Z,0
2018-03-14T01:44:57.445Z,0
2018-03-14T01:45:58.420Z,0
2018-03-14T01:46:57.181Z,0
2018-03-14T01:47:57.814Z,0
2018-03-14T01:48:57.792Z,0
2018-03-14T01:49:57.223Z,0
2018-03-14T01:50:57.846Z,0
2018-03-14T01:51:58.143Z,0
2018-03-14T01:52:57.850Z,0
2018-03-14T01:53:58.287Z,0
2018-03-14T01:54:58.167Z,0
2018-03-14T01:55:57.899Z,0
2018-03-14T01:56:58.244Z,0
2018-03-14T01:57:58.277Z,0
2018-03-14T01:58:57.641Z,0
2018-03-14T01:59:58.242Z,0
2018-03-14T02:00:58.766Z,0
2018-03-14T02:01:59.136Z,0
2018-03-14T02:02:57.702Z,0
2018-03-14T02:03:58.017Z,0
2018-03-14T02:04:58.307Z,0
2018-03-14T02:05:58.033Z,0
2018-03-14T02:06:58.024Z,0
2018-03-14T02:07:57.759Z,0
2018-03-14T02:08:58.460Z,0
2018-03-14T02:09:57.477Z,0
2018-03-14T02:10:57.786Z,0
2018-03-14T02:11:58.122Z,0
2018-03-14T02:12:58.424Z,0
2018-03-14T02:13:58.132Z,0
2018-03-14T02:14:58.140Z,0
2018-03-14T02:15:58.145Z,0
2018-03-14T02:16:59.409Z,0
2018-03-14T02:17:58.491Z,0
2018-03-14T02:18:58.545Z,0
2018-03-14T02:19:58.221Z,0
2018-03-14T02:20:57.940Z,0
2018-03-14T02:21:58.254Z,0
2018-03-14T02:22:58.233Z,0
2018-03-14T02:23:59.083Z,0
2018-03-14T02:24:59.085Z,0
2018-03-14T02:25:58.575Z,0
2018-03-14T02:26:58.314Z,0
2018-03-14T02:27:58.324Z,0
2018-03-14T02:28:58.322Z,0
2018-03-14T02:29:58.339Z,0
2018-03-14T02:30:58.688Z,0
2018-03-14T02:31:59.737Z,0
2018-03-14T02:32:58.364Z,0
2018-03-14T02:33:58.131Z,0
2018-03-14T02:34:58.395Z,0
2018-03-14T02:35:58.104Z,0
2018-03-14T02:36:58.431Z,0
2018-03-14T02:37:58.134Z,0
2018-03-14T02:38:58.745Z,0
2018-03-14T02:39:58.856Z,0
2018-03-14T02:40:58.462Z,0
2018-03-14T02:41:58.493Z,0
2018-03-14T02:42:58.808Z,0
2018-03-14T02:43:58.816Z,0
2018-03-14T02:44:58.783Z,0
2018-03-14T02:45:58.224Z,0
2018-03-14T02:46:58.805Z,0
2018-03-14T02:47:58.836Z,0
2018-03-14T02:48:58.839Z,0
2018-03-14T02:49:58.280Z,0
2018-03-14T02:50:58.865Z,0
2018-03-14T02:51:58.879Z,0
2018-03-14T02:52:58.875Z,0
2018-03-14T02:53:58.891Z,0
2018-03-14T02:54:58.910Z,0
2018-03-14T02:55:58.936Z,0
2018-03-14T02:56:58.659Z,0
2018-03-14T02:57:58.664Z,0
2018-03-14T02:58:58.963Z,0
2018-03-14T02:59:58.685Z,0
2018-03-14T03:00:58.979Z,0
2018-03-14T03:01:58.710Z,0
2018-03-14T03:02:58.726Z,0
2018-03-14T03:03:59.027Z,0
2018-03-14T03:04:58.748Z,0
2018-03-14T03:05:59.052Z,0
2018-03-14T03:06:59.063Z,0
2018-03-14T03:07:59.072Z,0
2018-03-14T03:08:59.093Z,0
2018-03-14T03:09:58.251Z,0
2018-03-14T03:10:58.544Z,0
2018-03-14T03:11:58.858Z,0
2018-03-14T03:12:58.286Z,0
2018-03-14T03:13:59.161Z,0
2018-03-14T03:14:58.599Z,0
2018-03-14T03:15:59.179Z,0
2018-03-14T03:16:58.904Z,0
2018-03-14T03:17:58.918Z,0
2018-03-14T03:18:58.936Z,0
2018-03-14T03:19:58.950Z,0
2018-03-14T03:20:58.957Z,0
2018-03-14T03:21:58.683Z,0
2018-03-14T03:22:58.698Z,0
2018-03-14T03:23:58.732Z,0
2018-03-14T03:24:59.307Z,0
2018-03-14T03:25:59.015Z,0
2018-03-14T03:26:59.036Z,0
2018-03-14T03:27:59.328Z,0
2018-03-14T03:28:59.344Z,0
2018-03-14T03:29:59.076Z,0
2018-03-14T03:30:59.388Z,0
2018-03-14T03:31:59.100Z,0
2018-03-14T03:32:59.393Z,0
2018-03-14T03:33:59.415Z,0
2018-03-14T03:34:59.495Z,0
2018-03-14T03:35:59.168Z,0
2018-03-14T03:36:59.164Z,0
2018-03-14T03:37:59.458Z,0
2018-03-14T03:38:59.487Z,0
2018-03-14T03:39:59.485Z,0
2018-03-14T03:40:59.220Z,0
2018-03-14T03:41:58.965Z,0
2018-03-14T03:42:59.529Z,0
2018-03-14T03:43:59.250Z,0
2018-03-14T03:44:59.274Z,0
2018-03-14T03:45:59.561Z,0
2018-03-14T03:46:59.291Z,0
2018-03-14T03:47:59.304Z,0
2018-03-14T03:48:59.319Z,0
2018-03-14T03:49:59.674Z,0
2018-03-14T03:50:59.342Z,0
2018-03-14T03:51:59.069Z,0
2018-03-14T03:52:59.654Z,0
2018-03-14T03:53:59.376Z,0
2018-03-14T03:54:59.397Z,0
2018-03-14T03:55:59.691Z,0
2018-03-14T03:56:59.702Z,0
2018-03-14T03:57:59.145Z,0
2018-03-14T03:58:59.735Z,0
2018-03-14T03:59:59.752Z,0
2018-03-14T04:00:59.475Z,0
2018-03-14T04:01:59.483Z,0
2018-03-14T04:02:59.494Z,0
2018-03-14T04:03:59.790Z,0
2018-03-14T04:04:59.804Z,0
2018-03-14T04:05:59.811Z,0
2018-03-14T04:06:59.265Z,0
2018-03-14T04:07:59.841Z,0
2018-03-14T04:08:59.858Z,0
2018-03-14T04:09:59.591Z,0
2018-03-14T04:10:59.882Z,0
2018-03-14T04:11:59.893Z,0
2018-03-14T04:12:59.913Z,0
2018-03-14T04:13:59.353Z,0
2018-03-14T04:14:59.986Z,0
2018-03-14T04:15:59.383Z,0
2018-03-14T04:16:59.953Z,0
2018-03-14T04:17:59.692Z,0
2018-03-14T04:18:59.716Z,0
2018-03-14T04:19:59.712Z,0
2018-03-14T04:20:59.729Z,0
2018-03-14T04:21:59.745Z,0
2018-03-14T04:22:59.480Z,0
2018-03-14T04:24:00.169Z,0
2018-03-14T04:25:00.062Z,0
2018-03-14T04:25:59.789Z,0
2018-03-14T04:26:59.861Z,0
2018-03-14T04:28:00.161Z,0
2018-03-14T04:28:59.263Z,0
2018-03-14T04:30:00.127Z,0
2018-03-14T04:30:59.854Z,0
2018-03-14T04:31:59.584Z,0
2018-03-14T04:32:59.323Z,0
2018-03-14T04:34:00.190Z,0
2018-03-14T04:35:00.190Z,0
2018-03-14T04:35:59.978Z,0
2018-03-14T04:37:00.212Z,0
2018-03-14T04:38:00.235Z,0
2018-03-14T04:38:59.688Z,0
2018-03-14T04:40:00.249Z,0
2018-03-14T04:40:59.982Z,0
2018-03-14T04:41:59.997Z,0
2018-03-14T04:42:59.725Z,0
2018-03-14T04:44:00.305Z,0
2018-03-14T04:45:00.046Z,0
2018-03-14T04:45:59.486Z,0
2018-03-14T04:47:00.067Z,0
2018-03-14T04:48:00.364Z,0
2018-03-14T04:49:00.372Z,0
2018-03-14T04:50:00.108Z,0
2018-03-14T04:51:00.446Z,0
2018-03-14T04:52:00.403Z,0
2018-03-14T04:53:00.425Z,0
2018-03-14T04:54:00.147Z,0
2018-03-14T04:55:00.172Z,0
2018-03-14T04:56:00.464Z,0
2018-03-14T04:57:00.192Z,0
2018-03-14T04:58:00.491Z,0
2018-03-14T04:59:00.212Z,0
2018-03-14T05:00:00.514Z,0
2018-03-14T05:01:00.243Z,0
2018-03-14T05:02:00.279Z,0
2018-03-14T05:03:00.266Z,0
2018-03-14T05:04:00.286Z,0
2018-03-14T05:05:00.298Z,0
2018-03-14T05:06:00.302Z,0
2018-03-14T05:07:00.621Z,0
2018-03-14T05:08:00.052Z,0
2018-03-14T05:09:00.625Z,0
2018-03-14T05:10:00.637Z,0
2018-03-14T05:11:00.381Z,0
2018-03-14T05:12:00.675Z,0
2018-03-14T05:13:00.113Z,0
2018-03-14T05:14:00.693Z,0
2018-03-14T05:15:00.142Z,0
2018-03-14T05:16:00.717Z,0
2018-03-14T05:17:00.729Z,4
2018-03-14T05:18:00.180Z,4
2018-03-14T05:19:00.958Z,4
2018-03-14T05:20:00.210Z,4
2018-03-14T05:21:00.498Z,0
2018-03-14T05:22:00.822Z,0
2018-03-14T05:23:00.535Z,4
2018-03-14T05:24:00.546Z,4
2018-03-14T05:25:00.835Z,8
2018-03-14T05:26:00.896Z,4
2018-03-14T05:27:00.855Z,4
2018-03-14T05:28:00.595Z,8
2018-03-14T05:29:00.882Z,8
2018-03-14T05:30:00.623Z,8
2018-03-14T05:31:00.342Z,8
2018-03-14T05:32:00.638Z,12
2018-03-14T05:33:00.096Z,16
2018-03-14T05:34:00.947Z,20
2018-03-14T05:35:00.676Z,28
2018-03-14T05:36:00.694Z,28
2018-03-14T05:37:00.703Z,20
2018-03-14T05:38:00.723Z,24
2018-03-14T05:39:01.019Z,40
2018-03-14T05:40:00.477Z,44
2018-03-14T05:41:00.751Z,48
2018-03-14T05:42:01.087Z,52
2018-03-14T05:43:00.985Z,52
2018-03-14T05:44:01.097Z,52
2018-03-14T05:45:00.804Z,52
2018-03-14T05:46:00.845Z,56
2018-03-14T05:47:00.841Z,64
2018-03-14T05:48:00.564Z,68
2018-03-14T05:49:00.860Z,72
2018-03-14T05:50:00.587Z,80
2018-03-14T05:51:00.886Z,84
2018-03-14T05:52:01.179Z,96
2018-03-14T05:53:00.628Z,104
2018-03-14T05:54:00.642Z,116
2018-03-14T05:55:00.932Z,136
2018-03-14T05:56:01.240Z,152
2018-03-14T05:57:01.244Z,156
2018-03-14T05:58:00.697Z,152
2018-03-14T05:59:00.994Z,156
2018-03-14T06:00:01.005Z,156
2018-03-14T06:01:01.013Z,140
2018-03-14T06:02:01.314Z,124
2018-03-14T06:03:01.345Z,124
2018-03-14T06:04:01.060Z,120
2018-03-14T06:05:01.065Z,136
2018-03-14T06:06:01.090Z,152
2018-03-14T06:07:00.870Z,152
2018-03-14T06:08:01.098Z,168
2018-03-14T06:09:01.116Z,180
2018-03-14T06:10:01.413Z,196
2018-03-14T06:11:00.863Z,188
2018-03-14T06:12:01.441Z,176
2018-03-14T06:13:01.166Z,184
2018-03-14T06:14:01.466Z,188
2018-03-14T06:15:01.191Z,196
2018-03-14T06:16:00.924Z,196
2018-03-14T06:17:01.561Z,188
2018-03-14T06:18:00.955Z,188
2018-03-14T06:19:01.527Z,192
2018-03-14T06:20:01.550Z,192
2018-03-14T06:21:01.273Z,188
2018-03-14T06:22:01.287Z,192
2018-03-14T06:23:01.594Z,180
2018-03-14T06:24:01.313Z,200
2018-03-14T06:25:01.350Z,228
2018-03-14T06:26:01.613Z,256
2018-03-14T06:27:01.635Z,260
2018-03-14T06:28:01.362Z,240
2018-03-14T06:29:01.378Z,248
2018-03-14T06:30:01.758Z,252
2018-03-14T06:31:01.678Z,252
2018-03-14T06:32:01.463Z,240
2018-03-14T06:33:01.705Z,236
2018-03-14T06:34:01.442Z,252
2018-03-14T06:35:01.455Z,252
2018-03-14T06:36:01.190Z,264
2018-03-14T06:37:01.806Z,264
2018-03-14T06:38:01.774Z,304
2018-03-14T06:39:01.547Z,360
2018-03-14T06:40:01.253Z,400
2018-03-14T06:41:01.815Z,444
2018-03-14T06:42:01.593Z,440
2018-03-14T06:43:01.269Z,380
2018-03-14T06:44:01.849Z,368
2018-03-14T06:45:01.589Z,360
2018-03-14T06:46:01.636Z,348
2018-03-14T06:47:01.939Z,340
2018-03-14T06:48:01.339Z,340
2018-03-14T06:49:01.350Z,340
2018-03-14T06:50:01.085Z,348
2018-03-14T06:51:01.975Z,356
2018-03-14T06:52:01.672Z,340
2018-03-14T06:53:01.680Z,320
2018-03-14T06:54:01.693Z,324
2018-03-14T06:55:01.714Z,380
2018-03-14T06:56:01.728Z,384
2018-03-14T06:57:01.451Z,376
2018-03-14T06:58:01.473Z,368
2018-03-14T06:59:02.169Z,348
2018-03-14T07:00:01.767Z,356
2018-03-14T07:01:02.066Z,412
2018-03-14T07:02:01.557Z,476
2018-03-14T07:03:01.817Z,492
2018-03-14T07:04:02.114Z,520
2018-03-14T07:05:01.900Z,524
2018-03-14T07:06:01.853Z,592
2018-03-14T07:07:01.863Z,616
2018-03-14T07:08:01.875Z,612
2018-03-14T07:09:01.894Z,548
2018-03-14T07:10:01.622Z,524
2018-03-14T07:11:01.658Z,536
2018-03-14T07:12:01.685Z,520
2018-03-14T07:13:01.660Z,520
2018-03-14T07:14:01.675Z,524
2018-03-14T07:15:01.967Z,552
2018-03-14T07:16:02.275Z,572
2018-03-14T07:17:02.009Z,556
2018-03-14T07:18:02.056Z,580
2018-03-14T07:19:02.312Z,552
2018-03-14T07:20:02.033Z,572
2018-03-14T07:21:02.349Z,580
2018-03-14T07:22:02.061Z,516
2018-03-14T07:23:02.362Z,516
2018-03-14T07:24:02.364Z,560
2018-03-14T07:25:01.823Z,532
2018-03-14T07:26:02.395Z,524
2018-03-14T07:27:02.410Z,580
2018-03-14T07:28:02.139Z,616
2018-03-14T07:29:02.183Z,620
2018-03-14T07:30:02.168Z,616
2018-03-14T07:31:02.179Z,584
2018-03-14T07:32:01.913Z,612
2018-03-14T07:33:02.261Z,644
2018-03-14T07:34:01.936Z,660
2018-03-14T07:35:02.555Z,664
2018-03-14T07:36:02.526Z,568
2018-03-14T07:37:01.978Z,512
2018-03-14T07:38:02.599Z,512
2018-03-14T07:39:01.714Z,540
2018-03-14T07:40:02.298Z,564
2018-03-14T07:41:02.592Z,612
2018-03-14T07:42:02.039Z,596
2018-03-14T07:43:02.334Z,592
2018-03-14T07:44:02.629Z,612
2018-03-14T07:45:02.364Z,704
2018-03-14T07:46:02.097Z,696
2018-03-14T07:47:02.673Z,680
2018-03-14T07:48:02.404Z,744
2018-03-14T07:49:02.501Z,772
2018-03-14T07:50:02.750Z,828
2018-03-14T07:51:02.447Z,880
2018-03-14T07:52:02.738Z,848
2018-03-14T07:53:02.525Z,892
2018-03-14T07:54:02.489Z,860
2018-03-14T07:55:02.497Z,800
2018-03-14T07:56:02.518Z,700
2018-03-14T07:57:02.818Z,632
2018-03-14T07:58:02.248Z,672
2018-03-14T07:59:02.632Z,760
2018-03-14T08:00:02.842Z,736
2018-03-14T08:01:02.574Z,608
2018-03-14T08:02:02.590Z,576
2018-03-14T08:03:02.942Z,600
2018-03-14T08:04:02.630Z,552
2018-03-14T08:05:02.912Z,424
2018-03-14T08:06:02.923Z,328
2018-03-14T08:07:02.394Z,328
2018-03-14T08:08:02.717Z,340
2018-03-14T08:09:02.402Z,488
2018-03-14T08:10:02.411Z,612
2018-03-14T08:11:02.725Z,644
2018-03-14T08:12:02.734Z,492
2018-03-14T08:13:02.734Z,420
2018-03-14T08:14:02.591Z,436
2018-03-14T08:15:03.061Z,376
2018-03-14T08:16:02.798Z,388
2018-03-14T08:17:02.709Z,348
2018-03-14T08:18:02.832Z,308
2018-03-14T08:19:02.816Z,456
2018-03-14T08:20:02.842Z,360
2018-03-14T08:21:02.848Z,256
2018-03-14T08:22:03.187Z,216
2018-03-14T08:23:02.875Z,252
2018-03-14T08:24:02.886Z,328
2018-03-14T08:25:03.182Z,556
2018-03-14T08:26:03.506Z,1108
2018-03-14T08:27:03.210Z,1160
2018-03-14T08:28:02.961Z,1108
2018-03-14T08:29:02.955Z,1116
2018-03-14T08:30:03.217Z,1104
2018-03-14T08:31:03.274Z,1020
2018-03-14T08:32:02.713Z,1032
2018-03-14T08:33:03.057Z,984
2018-03-14T08:34:03.336Z,932
2018-03-14T08:35:02.756Z,856
2018-03-14T08:36:02.790Z,832
2018-03-14T08:37:03.349Z,784
2018-03-14T08:38:03.086Z,836
2018-03-14T08:39:03.370Z,836
2018-03-14T08:40:02.820Z,752
2018-03-14T08:41:03.393Z,724
2018-03-14T08:42:03.144Z,704
2018-03-14T08:43:03.421Z,792
2018-03-14T08:44:02.888Z,744
2018-03-14T08:45:02.894Z,572
2018-03-14T08:46:03.756Z,548
2018-03-14T08:47:02.909Z,572
2018-03-14T08:48:03.230Z,652
2018-03-14T08:49:03.219Z,700
2018-03-14T08:50:03.248Z,644
2018-03-14T08:51:03.534Z,680
2018-03-14T08:52:03.277Z,1036
2018-03-14T08:53:03.613Z,1228
2018-03-14T08:54:03.287Z,1236
2018-03-14T08:55:03.301Z,1024
2018-03-14T08:56:03.609Z,932
2018-03-14T08:57:03.610Z,1252
2018-03-14T08:58:03.353Z,1488
2018-03-14T08:59:03.361Z,1400
2018-03-14T09:00:03.657Z,1308
2018-03-14T09:01:03.102Z,1320
2018-03-14T09:02:03.680Z,1288
2018-03-14T09:03:03.414Z,1284
2018-03-14T09:04:03.174Z,1216
2018-03-14T09:05:03.446Z,1120
2018-03-14T09:06:03.450Z,1264
2018-03-14T09:07:03.749Z,1408
2018-03-14T09:08:03.477Z,1560
2018-03-14T09:09:03.498Z,1480
2018-03-14T09:10:03.527Z,1360
2018-03-14T09:11:03.519Z,1336
2018-03-14T09:12:03.532Z,1396
2018-03-14T09:13:03.550Z,1512
2018-03-14T09:14:03.287Z,1692
2018-03-14T09:15:03.587Z,1764
2018-03-14T09:16:03.902Z,1716
2018-03-14T09:17:03.605Z,1708
2018-03-14T09:18:03.617Z,1660
2018-03-14T09:19:03.638Z,1684
2018-03-14T09:20:03.648Z,1700
2018-03-14T09:21:03.950Z,1852
2018-03-14T09:22:03.672Z,1840
2018-03-14T09:23:03.681Z,1732
2018-03-14T09:24:03.699Z,1644
2018-03-14T09:25:03.748Z,1624
2018-03-14T09:26:03.742Z,1608
2018-03-14T09:27:03.747Z,1536
2018-03-14T09:28:04.042Z,1496
2018-03-14T09:29:03.482Z,1528
2018-03-14T09:30:04.072Z,1516
2018-03-14T09:31:03.796Z,1504
2018-03-14T09:32:04.099Z,1476
2018-03-14T09:33:03.828Z,1548
2018-03-14T09:34:04.175Z,1644
2018-03-14T09:35:03.851Z,1608
2018-03-14T09:36:04.159Z,1548
2018-03-14T09:37:03.604Z,1456
2018-03-14T09:38:03.898Z,1376
2018-03-14T09:39:04.201Z,1372
2018-03-14T09:40:03.923Z,1332
2018-03-14T09:41:03.933Z,1276
2018-03-14T09:42:03.697Z,1120
2018-03-14T09:43:03.968Z,1292
2018-03-14T09:44:03.757Z,1384
2018-03-14T09:45:03.995Z,1548
2018-03-14T09:46:03.805Z,1412
2018-03-14T09:47:04.032Z,1496
2018-03-14T09:48:04.324Z,1360
2018-03-14T09:49:03.820Z,1508
2018-03-14T09:50:04.345Z,1744
2018-03-14T09:51:04.078Z,1960
2018-03-14T09:52:04.379Z,1636
2018-03-14T09:53:04.105Z,940
2018-03-14T09:54:04.424Z,688
2018-03-14T09:55:04.141Z,948
2018-03-14T09:56:04.158Z,1352
2018-03-14T09:57:03.884Z,1520
2018-03-14T09:58:04.185Z,1496
2018-03-14T09:59:04.195Z,1808
2018-03-14T10:00:04.208Z,1904
2018-03-14T10:01:04.504Z,1692
2018-03-14T10:02:04.231Z,1508
2018-03-14T10:03:04.258Z,1652
2018-03-14T10:04:04.035Z,1776
2018-03-14T10:05:03.998Z,1800
2018-03-14T10:06:04.297Z,1888
2018-03-14T10:07:04.305Z,1960
2018-03-14T10:08:04.322Z,1828
2018-03-14T10:09:04.387Z,1656
2018-03-14T10:10:04.630Z,1600
2018-03-14T10:11:04.651Z,1664
2018-03-14T10:12:04.661Z,1444
2018-03-14T10:13:04.111Z,1124
2018-03-14T10:14:04.771Z,1084
2018-03-14T10:15:04.706Z,1328
2018-03-14T10:16:04.176Z,1312
2018-03-14T10:17:04.797Z,1252
2018-03-14T10:18:04.746Z,1140
2018-03-14T10:19:04.498Z,1148
2018-03-14T10:20:04.492Z,1180
2018-03-14T10:21:04.223Z,1208
2018-03-14T10:22:04.523Z,1176
2018-03-14T10:23:04.831Z,908
2018-03-14T10:24:04.034Z,656
2018-03-14T10:25:04.280Z,676
2018-03-14T10:26:04.677Z,896
2018-03-14T10:27:04.311Z,916
2018-03-14T10:28:04.624Z,864
2018-03-14T10:29:04.690Z,812
2018-03-14T10:30:04.638Z,728
2018-03-14T10:31:04.719Z,676
2018-03-14T10:32:04.385Z,540
2018-03-14T10:33:04.398Z,424
2018-03-14T10:34:04.690Z,476
2018-03-14T10:35:04.708Z,568
2018-03-14T10:36:04.731Z,520
2018-03-14T10:37:04.732Z,684
2018-03-14T10:38:04.760Z,644
2018-03-14T10:39:04.610Z,660
2018-03-14T10:40:04.498Z,676
2018-03-14T10:41:04.522Z,664
2018-03-14T10:42:05.157Z,728
2018-03-14T10:43:05.105Z,776
2018-03-14T10:44:05.116Z,672
2018-03-14T10:45:04.565Z,736
2018-03-14T10:46:04.863Z,928
2018-03-14T10:47:04.602Z,1012
2018-03-14T10:48:04.845Z,1008
2018-03-14T10:49:04.951Z,1036
2018-03-14T10:50:04.950Z,1024
2018-03-14T10:51:05.218Z,988
2018-03-14T10:52:04.951Z,900
2018-03-14T10:53:04.683Z,900
2018-03-14T10:54:05.273Z,904
2018-03-14T10:55:04.990Z,888
2018-03-14T10:56:05.083Z,936
2018-03-14T10:57:05.024Z,988
2018-03-14T10:58:05.368Z,1076
2018-03-14T10:59:04.810Z,1068
2018-03-14T11:00:05.363Z,1044
2018-03-14T11:01:05.364Z,1012
2018-03-14T11:02:05.117Z,968
2018-03-14T11:03:05.116Z,968
2018-03-14T11:04:05.136Z,992
2018-03-14T11:05:04.910Z,1032
2018-03-14T11:06:04.867Z,1032
2018-03-14T11:07:05.446Z,1076
2018-03-14T11:08:05.178Z,1208
2018-03-14T11:09:05.201Z,1452
2018-03-14T11:10:05.269Z,1756
2018-03-14T11:11:05.235Z,1788
2018-03-14T11:12:04.964Z,1656
2018-03-14T11:13:05.244Z,1656
2018-03-14T11:14:05.551Z,1820
2018-03-14T11:15:05.616Z,1672
2018-03-14T11:16:05.288Z,1524
2018-03-14T11:17:05.308Z,1504
2018-03-14T11:18:05.738Z,1592
2018-03-14T11:19:05.339Z,1688
2018-03-14T11:20:05.430Z,1928
2018-03-14T11:21:05.369Z,2284
2018-03-14T11:22:05.107Z,2456
2018-03-14T11:23:05.109Z,2520
2018-03-14T11:24:05.412Z,2640
2018-03-14T11:25:05.433Z,2704
2018-03-14T11:26:05.735Z,2804
2018-03-14T11:27:05.735Z,2880
2018-03-14T11:28:05.676Z,2868
2018-03-14T11:29:05.487Z,2980
2018-03-14T11:30:05.488Z,2984
2018-03-14T11:31:05.514Z,2996
2018-03-14T11:32:05.241Z,3024
2018-03-14T11:33:05.829Z,3044
2018-03-14T11:34:05.583Z,3096
2018-03-14T11:35:05.851Z,3548
2018-03-14T11:36:05.874Z,3352
2018-03-14T11:37:05.314Z,3196
2018-03-14T11:38:05.906Z,3060
2018-03-14T11:39:05.914Z,2992
2018-03-14T11:40:05.409Z,3000
2018-03-14T11:41:05.379Z,2908
2018-03-14T11:42:05.399Z,2712
2018-03-14T11:43:05.711Z,2184
2018-03-14T11:44:05.419Z,1840
2018-03-14T11:45:05.430Z,1532
2018-03-14T11:46:05.735Z,1188
2018-03-14T11:47:05.477Z,1148
2018-03-14T11:48:05.489Z,1320
2018-03-14T11:49:05.772Z,1348
2018-03-14T11:50:06.132Z,1028
2018-03-14T11:51:05.520Z,940
2018-03-14T11:52:06.101Z,1004
2018-03-14T11:53:06.127Z,1204
2018-03-14T11:54:05.849Z,1740
2018-03-14T11:55:05.918Z,2444
2018-03-14T11:56:05.619Z,2608
2018-03-14T11:57:06.173Z,2608
2018-03-14T11:58:05.911Z,2664
2018-03-14T11:59:05.919Z,2648
2018-03-14T12:00:05.702Z,2576
2018-03-14T12:01:06.235Z,2556
2018-03-14T12:02:06.279Z,2532
2018-03-14T12:03:06.274Z,2512
2018-03-14T12:04:06.032Z,2592
2018-03-14T12:05:06.012Z,2612
2018-03-14T12:06:06.034Z,2548
2018-03-14T12:07:05.767Z,2536
2018-03-14T12:08:06.060Z,2460
2018-03-14T12:09:05.800Z,2364
2018-03-14T12:10:06.163Z,2268
2018-03-14T12:11:06.165Z,2156
2018-03-14T12:12:05.853Z,2184
2018-03-14T12:13:06.142Z,2224
2018-03-14T12:14:06.439Z,2124
2018-03-14T12:15:06.170Z,1924
2018-03-14T12:16:05.901Z,1664
2018-03-14T12:17:06.197Z,2016
2018-03-14T12:18:05.936Z,2128
2018-03-14T12:19:06.518Z,1668
2018-03-14T12:20:06.529Z,1460
2018-03-14T12:21:05.971Z,1608
2018-03-14T12:22:05.987Z,1684
2018-03-14T12:23:06.285Z,1224
2018-03-14T12:24:06.015Z,1160
2018-03-14T12:25:06.443Z,1200
2018-03-14T12:26:06.615Z,1228
2018-03-14T12:27:06.065Z,1288
2018-03-14T12:28:06.083Z,1292
2018-03-14T12:29:06.666Z,1196
2018-03-14T12:30:06.715Z,1152
2018-03-14T12:31:06.127Z,1088
2018-03-14T12:32:06.426Z,1020
2018-03-14T12:33:06.815Z,1052
2018-03-14T12:34:06.852Z,1080
2018-03-14T12:35:06.192Z,1096
2018-03-14T12:36:05.970Z,1056
2018-03-14T12:37:06.666Z,1108
2018-03-14T12:38:06.514Z,1148
2018-03-14T12:39:06.250Z,976
2018-03-14T12:40:06.634Z,908
2018-03-14T12:41:06.325Z,884
2018-03-14T12:42:06.009Z,900
2018-03-14T12:43:06.591Z,964
2018-03-14T12:44:06.614Z,1152
2018-03-14T12:45:06.339Z,1500
2018-03-14T12:46:06.372Z,1972
2018-03-14T12:47:06.648Z,2328
2018-03-14T12:48:06.394Z,2592
2018-03-14T12:49:06.684Z,2608
2018-03-14T12:50:06.989Z,2536
2018-03-14T12:51:07.052Z,2496
2018-03-14T12:52:07.013Z,2416
2018-03-14T12:53:06.463Z,2348
2018-03-14T12:54:06.861Z,2396
2018-03-14T12:55:06.773Z,2404
2018-03-14T12:56:06.857Z,2204
2018-03-14T12:57:06.236Z,2248
2018-03-14T12:58:06.534Z,2376
2018-03-14T12:59:07.113Z,2372
2018-03-14T13:00:07.132Z,2444
2018-03-14T13:01:06.863Z,2492
2018-03-14T13:02:06.597Z,2360
2018-03-14T13:03:07.185Z,2200
2018-03-14T13:04:07.197Z,2180
2018-03-14T13:05:06.931Z,2252
2018-03-14T13:06:07.252Z,2324
2018-03-14T13:07:07.044Z,2344
2018-03-14T13:08:07.261Z,2480
2018-03-14T13:09:07.277Z,2532
2018-03-14T13:10:07.287Z,2568
2018-03-14T13:11:07.026Z,2544
2018-03-14T13:12:07.312Z,2536
2018-03-14T13:13:07.048Z,2660
2018-03-14T13:14:07.071Z,2432
2018-03-14T13:15:07.402Z,2208
2018-03-14T13:16:07.096Z,2240
2018-03-14T13:17:07.141Z,2124
2018-03-14T13:18:07.270Z,1864
2018-03-14T13:19:07.168Z,1492
2018-03-14T13:20:07.443Z,1360
2018-03-14T13:21:06.623Z,1192
2018-03-14T13:22:06.906Z,1220
2018-03-14T13:23:07.502Z,1592
2018-03-14T13:24:07.511Z,1632
2018-03-14T13:25:07.237Z,1340
2018-03-14T13:26:07.538Z,868
2018-03-14T13:27:07.272Z,768
2018-03-14T13:28:07.785Z,816
2018-03-14T13:29:07.304Z,868
2018-03-14T13:30:07.317Z,948
2018-03-14T13:31:07.377Z,1112
2018-03-14T13:32:07.360Z,1316
2018-03-14T13:33:07.367Z,1548
2018-03-14T13:34:07.657Z,1836
2018-03-14T13:35:07.392Z,1960
2018-03-14T13:36:07.414Z,1940
2018-03-14T13:37:07.705Z,1620
2018-03-14T13:38:07.726Z,1424
2018-03-14T13:39:07.447Z,1596
2018-03-14T13:40:07.599Z,1664
2018-03-14T13:41:07.481Z,1648
2018-03-14T13:42:07.780Z,1620
2018-03-14T13:43:07.521Z,1620
2018-03-14T13:44:07.530Z,1752
2018-03-14T13:45:07.546Z,1984
2018-03-14T13:46:07.304Z,1984
2018-03-14T13:47:07.588Z,2052
2018-03-14T13:48:07.603Z,1940
2018-03-14T13:49:07.607Z,1864
2018-03-14T13:50:07.343Z,2016
2018-03-14T13:51:07.405Z,2148
2018-03-14T13:52:07.966Z,2180
2018-03-14T13:53:07.673Z,2132
2018-03-14T13:54:07.128Z,2120
2018-03-14T13:55:07.994Z,2112
2018-03-14T13:56:07.201Z,2152
2018-03-14T13:57:07.443Z,2168
2018-03-14T13:58:08.027Z,1992
2018-03-14T13:59:08.130Z,1928
2018-03-14T14:00:08.089Z,2008
2018-03-14T14:01:07.512Z,1988